Veter Od: 18-06-2018 11:00 Do: 22:59 Opozorilo za: Veter Stopnja: Rumena
Vreme je potencialno nevarno.
info button

Radar strel več informacij blitzortung!


Radar padavin  rain snow radar


Obiščite še:

Template documentation
and downloads

And another site



METAR v bližini

   
EBBR - Brussels International Airport, Belgium
Oddaljenost od postaje: Z 14 km
Posodobljeno: 18-06-2018 14:50
delno oblačno  
delno oblačno  
   Veter: ZJZ 18.5 km/h
Veter: ZJZ 18.5 km/h
Temperatura: 20°C
Točka rosišča: 15°C
Vlažnost: 73%
Zračni tlak: 1021 hPa
Oblaki: delno oblačno
Vidljivost: More than 10 km
Podrobnosti o oblakih: delno oblačno 609.6 m,
delno oblačno 1066.8 m
EBBR 181250Z 24010KT 210V270 9999 SCT020 SCT035 20/15 Q1021 NOSIG
EBBE - Beauvechain (Bevekom), Belgium
Oddaljenost od postaje: JJV 17 km
Posodobljeno: 18-06-2018 10:55
Ni aktualni
pretežno oblačno  
pretežno oblačno  
   Veter: JZ 22.2 km/h
Veter: JZ 22.2 km/h
Temperatura: 18°C
Točka rosišča: 14°C
Vlažnost: 78%
Zračni tlak: 1021 hPa
Oblaki: pretežno oblačno
Vidljivost: More than 10 km
Podrobnosti o oblakih: delno oblačno 487.7 m,
pretežno oblačno 914.4 m,
pretežno oblačno 1828.8 m
EBBE 180855Z 23012KT 9999 SCT016 BKN030 BKN060 18/14 Q1021 WHT WHT TEMPO GRN
EBDT - Schaffen, Belgium
Oddaljenost od postaje: VSV 29 km
Posodobljeno: 18-06-2018 09:55
Ni aktualni
Light Rain, pretežno oblačno  
Light Rain, pretežno oblačno  
   Veter: JJZ 14.8 km/h
Veter: JJZ 14.8 km/h
Temperatura: 18°C
Točka rosišča: 14°C
Vlažnost: 78%
Zračni tlak: 1020 hPa
Oblaki: pretežno oblačno
Vidljivost: More than 10 km
Podrobnosti o oblakih: delno oblačno 609.6 m,
delno oblačno 762 m,
pretežno oblačno 1066.8 m
EBDT 180755Z 21008KT 9999 -RA SCT020 SCT025 BKN035 18/14 Q1020 WHT WHT TEMPO GRN
EBAW - Antwerp/Deurne, Belgium
Oddaljenost od postaje: SSZ 38 km
Posodobljeno: 18-06-2018 14:50
pretežno oblačno  
pretežno oblačno  
   Veter: JZ 16.7 km/h
Veter: JZ 16.7 km/h
Temperatura: 20°C
Točka rosišča: 14°C
Vlažnost: 69%
Zračni tlak: 1020 hPa
Oblaki: pretežno oblačno
Vidljivost: More than 10 km
Podrobnosti o oblakih: pretežno oblačno 731.5 m,
pretežno oblačno 914.4 m
EBAW 181250Z 23009KT 200V260 9999 BKN024 BKN030 20/14 Q1020 NOSIG
EBCI - Charleroi/Gosselies, Belgium
Oddaljenost od postaje: JJZ 51 km
Posodobljeno: 18-06-2018 14:50
pretežno oblačno  
pretežno oblačno  
   Veter: ZJZ 27.8 km/h
Veter: ZJZ 27.8 km/h
Temperatura: 19°C
Točka rosišča: 15°C
Vlažnost: 78%
Zračni tlak: 1022 hPa
Oblaki: pretežno oblačno
Vidljivost: More than 10 km
Podrobnosti o oblakih: delno oblačno 548.6 m,
pretežno oblačno 914.4 m
EBCI 181250Z 24015KT 9999 SCT018 BKN030 19/15 Q1022 NOSIG
EBLG - Bierset/Liege, Belgium
Oddaljenost od postaje: VJV 60 km
Posodobljeno: 18-06-2018 14:50
pretežno oblačno  
pretežno oblačno  
   Veter: JZ 24.1 km/h
Veter: JZ 24.1 km/h
Temperatura: 19°C
Točka rosišča: 14°C
Vlažnost: 73%
Zračni tlak: 1021 hPa
Oblaki: pretežno oblačno
Vidljivost: More than 10 km
Podrobnosti o oblakih: nekaj oblakov 792.5 m,
pretežno oblačno 1097.3 m
EBLG 181250Z 22013KT 9999 FEW026 BKN036 19/14 Q1021 NOSIG

Script developed by  Saratoga-weather.org Adapted for the template by  Weerstation Leuven

Oprema, ki se uporablja:

Vremenska postaja
AERCUS WH 3083

Vremenski program
Weather Display

AERCUS WH 3083

Weather Display